KI6KEP Weather Reports


time (UTC)temp
F
wind
direction
speed
knots
gust
knots
rain 1hr
in
rain 24hr
in
rain mn
in
humidity
%
barometer
mb
20260507041003 64 1 4.3 8.7 0.00 0.00 0.00 55 1010.3
20260507040502 64 1 3.5 7.8 0.00 0.00 0.00 54 1010.2
20260507040003 65 1 4.3 8.7 0.00 0.00 0.00 53 1010.2
20260507035002 65 1 7.0 9.6 0.00 0.00 0.00 52 1009.9
20260507034503 65 1 7.0 9.6 0.00 0.00 0.00 53 1009.9
20260507034002 65 1 7.0 10.4 0.00 0.00 0.00 54 1009.8
20260507033002 65 1 7.0 9.6 0.00 0.00 0.00 53 1009.8
20260507032002 65 1 7.0 11.3 0.00 0.00 0.00 53 1009.8
20260507031502 65 1 6.1 10.4 0.00 0.00 0.00 53 1009.8
20260507031003 66 1 6.1 10.4 0.00 0.00 0.00 52 1009.7
20260507030503 66 1 6.1 10.4 0.00 0.00 0.00 50 1009.7
20260507030002 67 1 5.2 8.7 0.00 0.00 0.00 49 1009.4
20260507025502 67 1 4.3 9.6 0.00 0.00 0.00 48 1009.3
20260507025002 68 1 5.2 10.4 0.00 0.00 0.00 46 1009.3
20260507024502 69 1 5.2 10.4 0.00 0.00 0.00 44 1009.3
20260507024003 70 1 5.2 10.4 0.00 0.00 0.00 42 1009.2
20260507023502 70 1 5.2 8.7 0.00 0.00 0.00 41 1009.3
20260507023002 71 1 6.1 8.7 0.00 0.00 0.00 40 1009.4
20260507022003 73 18 3.5 7.8 0.00 0.00 0.00 35 1009.3
20260507021002 77 50 0.9 7.8 0.00 0.00 0.00 29 1009.3
20260507020502 77 98 1.7 7.0 0.00 0.00 0.00 23 1009.3
20260507015002 77 100 0.9 7.0 0.00 0.00 0.00 23 1009.0
20260507014502 77 94 1.7 5.2 0.00 0.00 0.00 23 1009.0
20260507014003 77 95 1.7 6.1 0.00 0.00 0.00 23 1009.1
20260507013502 77 91 2.6 8.7 0.00 0.00 0.00 23 1009.1
20260507013002 78 84 2.6 8.7 0.00 0.00 0.00 22 1009.1
20260507012502 78 79 2.6 7.8 0.00 0.00 0.00 22 1009.0
20260507011502 78 97 2.6 6.1 0.00 0.00 0.00 22 1009.1
20260507011002 78 75 5.2 9.6 0.00 0.00 0.00 22 1009.0
20260507010503 78 70 5.2 10.4 0.00 0.00 0.00 22 1009.1
20260507010002 78 61 4.3 10.4 0.00 0.00 0.00 22 1008.9
20260507005003 78 93 3.5 11.3 0.00 0.00 0.00 23 1008.9
20260507004502 77 117 4.3 11.3 0.00 0.00 0.00 23 1008.9
20260507004002 77 181 4.3 10.4 0.00 0.00 0.00 24 1008.9
20260507003003 78 359 4.3 10.4 0.00 0.00 0.00 23 1008.9
20260507002502 78 33 5.2 9.6 0.00 0.00 0.00 23 1009.0
20260507001503 78 89 6.1 10.4 0.00 0.00 0.00 22 1008.9
20260507001002 78 85 7.0 11.3 0.00 0.00 0.00 23 1008.9
20260507000502 78 60 5.2 14.8 0.00 0.00 0.00 23 1008.9
20260507000002 78 53 4.3 14.8 0.00 0.00 0.00 23 1008.7
20260506235503 77 45 3.5 9.6 0.00 0.00 0.00 23 1008.6
20260506235002 77 358 3.5 9.6 0.00 0.00 0.00 23 1008.7
20260506234502 77 348 4.3 11.3 0.00 0.00 0.00 23 1008.7
20260506234002 78 1 3.5 12.2 0.00 0.00 0.00 23 1008.8
20260506233002 77 50 3.5 7.8 0.00 0.00 0.00 23 1008.9
20260506232503 77 28 4.3 13.0 0.00 0.00 0.00 23 1008.9
20260506232003 78 67 7.0 13.0 0.00 0.00 0.00 22 1009.0
20260506231502 78 85 7.0 13.0 0.00 0.00 0.00 23 1008.9
20260506231003 78 75 5.2 13.0 0.00 0.00 0.00 22 1008.9
20260506230503 77 93 4.3 10.4 0.00 0.00 0.00 23 1008.9
20260506230003 76 138 6.1 13.0 0.00 0.00 0.00 24 1008.9
20260506225502 77 142 6.1 13.0 0.00 0.00 0.00 24 1009.1
20260506225002 77 104 4.3 13.0 0.00 0.00 0.00 24 1009.1
20260506224003 77 359 4.3 11.3 0.00 0.00 0.00 24 1009.2
20260506223502 77 2 5.2 12.2 0.00 0.00 0.00 25 1009.4
20260506223002 77 39 7.0 12.2 0.00 0.00 0.00 25 1009.4
20260506222502 77 77 6.1 12.2 0.00 0.00 0.00 26 1009.3
20260506222003 77 65 5.2 12.2 0.00 0.00 0.00 26 1009.5
20260506221502 76 68 5.2 12.2 0.00 0.00 0.00 27 1009.6
20260506221002 76 35 5.2 11.3 0.00 0.00 0.00 28 1009.7
20260506220503 76 9 5.2 11.3 0.00 0.00 0.00 28 1009.8
20260506220002 76 37 3.5 11.3 0.00 0.00 0.00 29 1009.7
20260506215502 75 88 2.6 7.8 0.00 0.00 0.00 28 1009.7
20260506215002 75 88 3.5 8.7 0.00 0.00 0.00 30 1009.8
20260506214503 75 90 2.6 8.7 0.00 0.00 0.00 30 1009.9
20260506214002 75 103 3.5 8.7 0.00 0.00 0.00 30 1010.0
20260506213502 75 82 4.3 12.2 0.00 0.00 0.00 30 1010.2
20260506213003 75 67 3.5 12.2 0.00 0.00 0.00 30 1010.2
20260506212502 74 27 4.3 7.8 0.00 0.00 0.00 30 1010.2
20260506212002 74 1 4.3 8.7 0.00 0.00 0.00 31 1010.4
20260506211503 74 2 3.5 11.3 0.00 0.00 0.00 31 1010.4
20260506211003 74 1 4.3 11.3 0.00 0.00 0.00 32 1010.5
20260506210502 74 6 4.3 10.4 0.00 0.00 0.00 31 1010.6
20260506210003 74 15 4.3 15.6 0.00 0.00 0.00 31 1010.5
20260506205503 74 11 4.3 15.6 0.00 0.00 0.00 31 1010.5
20260506204502 72 3 6.1 12.2 0.00 0.00 0.00 32 1010.6
20260506204003 73 10 4.3 11.3 0.00 0.00 0.00 31 1010.6
20260506203502 73 27 4.3 11.3 0.00 0.00 0.00 31 1010.6
20260506203003 73 23 4.3 9.6 0.00 0.00 0.00 31 1010.7
20260506202002 73 50 4.3 9.6 0.00 0.00 0.00 31 1010.8
20260506201502 73 22 5.2 10.4 0.00 0.00 0.00 32 1010.8
20260506200502 72 359 5.2 9.6 0.00 0.00 0.00 32 1010.8
20260506200002 72 13 3.5 9.6 0.00 0.00 0.00 32 1010.6
20260506195503 71 29 3.5 7.8 0.00 0.00 0.00 32 1010.7
20260506195003 72 20 5.2 11.3 0.00 0.00 0.00 32 1010.8
20260506194502 71 41 4.3 11.3 0.00 0.00 0.00 32 1010.9
20260506194003 71 82 2.6 11.3 0.00 0.00 0.00 33 1010.8
20260506193502 70 70 4.3 10.4 0.00 0.00 0.00 33 1010.9
20260506193002 70 37 5.2 10.4 0.00 0.00 0.00 34 1011.0
20260506192503 70 21 4.3 9.6 0.00 0.00 0.00 34 1011.0
20260506192002 70 35 3.5 9.6 0.00 0.00 0.00 35 1011.2
20260506191003 70 35 4.3 10.4 0.00 0.00 0.00 36 1011.3
20260506190503 69 24 3.5 10.4 0.00 0.00 0.00 36 1011.3
20260506190002 69 58 3.5 10.4 0.00 0.00 0.00 37 1011.3
20260506185502 68 32 3.5 8.7 0.00 0.00 0.00 37 1011.4
20260506185004 68 11 3.5 9.6 0.00 0.00 0.00 37 1011.4
20260506184502 68 34 3.5 9.6 0.00 0.00 0.00 37 1011.5
20260506184002 68 35 2.6 8.7 0.00 0.00 0.00 37 1011.5
20260506183503 67 14 3.5 7.0 0.00 0.00 0.00 39 1011.6
20260506183003 67 9 4.3 8.7 0.00 0.00 0.00 38 1011.5
20260506182502 67 1 4.3 9.6 0.00 0.00 0.00 40 1011.6
20260506182002 67 2 3.5 9.6 0.00 0.00 0.00 39 1011.7
20260506181503 66 7 2.6 8.7 0.00 0.00 0.00 39 1011.7
20260506181003 66 15 2.6 8.7 0.00 0.00 0.00 40 1011.8
20260506180503 66 21 2.6 8.7 0.00 0.00 0.00 41 1011.7
20260506180002 65 22 4.3 8.7 0.00 0.00 0.00 42 1011.6
20260506175503 65 20 2.6 11.3 0.00 0.00 0.00 41 1011.6
20260506175003 65 18 2.6 11.3 0.00 0.00 0.00 43 1011.6
20260506174503 64 21 3.5 9.6 0.00 0.00 0.00 43 1011.5
20260506174003 64 17 3.5 9.6 0.00 0.00 0.00 43 1011.5
20260506173503 64 8 2.6 7.8 0.00 0.00 0.00 44 1011.6
20260506173002 64 6 2.6 7.8 0.00 0.00 0.00 45 1011.5
20260506172502 64 14 2.6 7.8 0.00 0.00 0.00 45 1011.6
20260506172003 63 12 1.7 7.8 0.00 0.00 0.00 46 1011.6
20260506171002 62 1 3.5 8.7 0.00 0.00 0.00 47 1011.6
20260506170503 62 1 3.5 7.8 0.00 0.00 0.00 48 1011.7
20260506170003 62 1 2.6 7.8 0.00 0.00 0.00 48 1011.6
20260506165502 61 4 1.7 5.2 0.00 0.00 0.00 50 1011.6
20260506165003 61 3 1.7 5.2 0.00 0.00 0.00 49 1011.6
20260506164503 61 1 0.9 5.2 0.00 0.00 0.00 50 1011.7
20260506164002 60 1 1.7 4.3 0.00 0.00 0.00 50 1011.7
20260506163502 60 1 1.7 4.3 0.00 0.00 0.00 50 1011.5
20260506163003 60 1 1.7 7.0 0.00 0.00 0.00 52 1011.5
20260506162503 59 2 2.6 7.0 0.00 0.00 0.00 53 1011.4
20260506161502 58 5 3.5 8.7 0.00 0.00 0.00 55 1011.6
20260506161003 58 3 4.3 9.6 0.00 0.00 0.00 55 1011.5
20260506160003 58 2 3.5 8.7 0.00 0.00 0.00 56 1011.5
20260506155502 57 3 2.6 8.7 0.00 0.00 0.00 56 1011.4
20260506155003 57 1 2.6 7.8 0.00 0.00 0.00 57 1011.4
20260506154502 56 3 2.6 7.0 0.00 0.00 0.00 58 1011.4
20260506154002 56 3 2.6 7.0 0.00 0.00 0.00 57 1011.5
20260506153003 56 1 1.7 5.2 0.00 0.00 0.00 58 1011.3
20260506152502 56 2 0.9 3.5 0.00 0.00 0.00 58 1011.3
20260506152002 55 1 0.9 4.3 0.00 0.00 0.00 59 1011.4
20260506151503 55 1 0.9 4.3 0.00 0.00 0.00 58 1011.3
20260506151002 55 1 0.0 0.9 0.00 0.00 0.00 59 1011.4
20260506150502 55 1 0.0 2.6 0.00 0.00 0.00 60 1011.3
20260506150003 55 1 0.0 2.6 0.00 0.00 0.00 59 1011.2
20260506145503 54 1 0.0 1.7 0.00 0.00 0.00 60 1011.3
20260506145002 54 1 0.0 1.7 0.00 0.00 0.00 60 1011.2
20260506144503 54 1 0.0 1.7 0.00 0.00 0.00 61 1011.3
20260506143502 53 1 0.0 1.7 0.00 0.00 0.00 63 1011.3
20260506143003 53 1 0.0 0.9 0.00 0.00 0.00 65 1011.2
20260506142502 52 1 0.9 2.6 0.00 0.00 0.00 67 1011.2
20260506141503 51 1 0.0 2.6 0.00 0.00 0.00 69 1010.9
20260506141002 51 1 0.0 2.6 0.00 0.00 0.00 70 1010.9
20260506140003 49 1 0.0 1.7 0.00 0.00 0.00 72 1010.7
20260506135503 49 1 0.0 1.7 0.00 0.00 0.00 73 1010.7
20260506135002 48 1 0.0 0.9 0.00 0.00 0.00 74 1010.6
20260506134502 48 1 0.0 1.7 0.00 0.00 0.00 75 1010.7
20260506134003 47 1 0.0 1.7 0.00 0.00 0.00 76 1010.6
20260506133503 46 1 0.0 1.7 0.00 0.00 0.00 77 1010.7
20260506133002 46 1 0.0 1.7 0.00 0.00 0.00 77 1010.6
20260506132502 46 1 0.0 0.9 0.00 0.00 0.00 78 1010.5
20260506132003 45 1 0.0 0.9 0.00 0.00 0.00 78 1010.5
20260506131503 45 1 0.9 2.6 0.00 0.00 0.00 78 1010.4
20260506130502 45 1 0.9 2.6 0.00 0.00 0.00 78 1010.3
20260506130003 45 1 0.9 2.6 0.00 0.00 0.00 78 1010.1
20260506125503 45 1 0.9 3.5 0.00 0.00 0.00 78 1010.1
20260506125003 45 1 1.7 3.5 0.00 0.00 0.00 78 1010.0
20260506124502 45 1 1.7 3.5 0.00 0.00 0.00 78 1010.0
20260506124003 45 1 1.7 3.5 0.00 0.00 0.00 79 1010.0
20260506123503 45 1 1.7 3.5 0.00 0.00 0.00 79 1009.8
20260506123002 45 1 2.6 3.5 0.00 0.00 0.00 79 1009.8
20260506122503 45 1 2.6 4.3 0.00 0.00 0.00 79 1009.8
20260506122003 45 1 2.6 4.3 0.00 0.00 0.00 80 1009.8
20260506121502 45 1 1.7 4.3 0.00 0.00 0.00 80 1009.9
20260506121002 45 1 2.6 4.3 0.00 0.00 0.00 80 1009.9
20260506120503 45 1 2.6 4.3 0.00 0.00 0.00 80 1009.9
20260506115502 45 1 2.6 5.2 0.00 0.00 0.00 80 1009.8
20260506115003 45 1 2.6 5.2 0.00 0.00 0.00 80 1009.8
20260506114503 45 1 2.6 5.2 0.00 0.00 0.00 80 1009.8
20260506114002 45 359 2.6 5.2 0.00 0.00 0.00 79 1009.8
20260506113503 45 357 2.6 5.2 0.00 0.00 0.00 79 1009.7
20260506113003 45 358 3.5 5.2 0.00 0.00 0.00 79 1009.7
20260506112502 45 359 3.5 5.2 0.00 0.00 0.00 79 1009.7
20260506112003 45 359 3.5 5.2 0.00 0.00 0.00 79 1009.7
20260506111503 45 1 3.5 5.2 0.00 0.00 0.00 79 1009.7
20260506111003 45 1 3.5 7.0 0.00 0.00 0.00 80 1009.8
20260506110502 45 1 3.5 7.0 0.00 0.00 0.00 80 1009.8
20260506110003 45 358 3.5 7.0 0.00 0.00 0.00 80 1009.7
20260506105503 45 357 3.5 7.8 0.00 0.00 0.00 80 1009.7
20260506105003 45 358 3.5 7.8 0.00 0.00 0.00 80 1009.7
20260506104003 46 358 3.5 5.2 0.00 0.00 0.00 80 1009.6
20260506103503 46 357 4.3 7.8 0.00 0.00 0.00 79 1009.6
20260506102502 46 358 4.3 7.8 0.00 0.00 0.00 79 1009.6
20260506102002 46 358 3.5 7.8 0.00 0.00 0.00 79 1009.6
20260506101503 46 359 3.5 7.0 0.00 0.00 0.00 79 1009.6
20260506100504 46 359 4.3 7.8 0.00 0.00 0.00 79 1009.6
20260506100002 46 1 3.5 7.8 0.00 0.00 0.00 79 1009.6
20260506094502 46 359 3.5 8.7 0.00 0.00 0.00 79 1009.5
20260506094003 46 359 4.3 8.7 0.00 0.00 0.00 79 1009.5
20260506093503 46 1 5.2 8.7 0.00 0.00 0.00 79 1009.5
20260506093002 46 1 5.2 10.4 0.00 0.00 0.00 79 1009.5
20260506092003 46 1 7.0 10.4 0.00 0.00 0.00 79 1009.4
20260506091503 47 1 7.0 10.4 0.00 0.00 0.00 80 1009.5
20260506091003 47 1 6.1 10.4 0.00 0.00 0.00 80 1009.5
20260506090502 47 1 5.2 8.7 0.00 0.00 0.00 80 1009.5
20260506090003 47 1 6.1 8.7 0.00 0.00 0.00 80 1009.6
20260506085503 47 1 6.1 9.6 0.00 0.00 0.00 80 1009.5
20260506085002 47 1 6.1 10.4 0.00 0.00 0.00 81 1009.5
20260506084504 47 1 6.1 10.4 0.00 0.00 0.00 81 1009.6
20260506084003 47 1 6.1 10.4 0.00 0.00 0.00 81 1009.4
20260506083503 46 1 6.1 10.4 0.00 0.00 0.00 81 1009.5
20260506083003 46 1 6.1 10.4 0.00 0.00 0.00 81 1009.5
20260506082002 46 1 4.3 8.7 0.00 0.00 0.00 81 1009.5
20260506081503 46 359 4.3 7.8 0.00 0.00 0.00 81 1009.5
20260506081003 46 1 5.2 9.6 0.00 0.00 0.00 81 1009.6
20260506080503 46 2 6.1 9.6 0.00 0.00 0.00 81 1009.6
20260506073503 47 1 4.3 8.7 0.00 0.00 0.00 80 1009.6
20260506073003 47 1 4.3 8.7 0.00 0.00 0.00 80 1009.6
20260506072503 47 359 4.3 8.7 0.00 0.00 0.00 80 1009.6
20260506072002 47 359 5.2 9.6 0.00 0.00 0.00 79 1009.6
20260506071503 47 1 5.2 9.6 0.00 0.00 0.00 79 1009.6
20260506070503 47 1 6.1 9.6 0.00 0.00 0.00 78 1009.6
20260506062505 48 3 5.2 7.8 0.00 0.00 0.00 75 1009.5
20260506062003 48 2 3.5 7.0 0.00 0.00 0.00 75 1009.4
20260506061503 48 357 2.6 7.0 0.00 0.00 0.00 75 1009.3
20260506060503 48 359 2.6 5.2 0.00 0.00 0.00 74 1009.3
20260506050503 48 1 2.6 7.8 0.00 0.00 0.00 72 1008.9
20260506045002 49 359 2.6 7.8 0.00 0.00 0.00 72 1008.6
20260506044503 49 1 3.5 7.8 0.00 0.00 0.00 72 1008.6
20260506044003 49 359 3.5 7.0 0.00 0.00 0.00 72 1008.5
20260506043002 49 359 3.5 8.7 0.00 0.00 0.00 71 1008.3
20260506042503 49 359 3.5 8.7 0.00 0.00 0.00 71 1008.2
20260506042003 49 359 3.5 7.8 0.00 0.00 0.00 71 1008.2
20260506041503 49 359 3.5 7.8 0.00 0.00 0.00 70 1008.2